createdAt,value
2018-06-14T00:00:15.690Z,91.14
2018-06-14T00:05:10.404Z,90.91
2018-06-14T00:10:05.309Z,91.77
2018-06-14T00:15:00.961Z,91.52
2018-06-14T00:19:55.687Z,91.57
2018-06-14T00:24:50.787Z,91.58
2018-06-14T00:29:47.259Z,91.54
2018-06-14T00:34:42.062Z,91.25
2018-06-14T00:39:37.025Z,91.91
2018-06-14T00:44:32.947Z,91.01
2018-06-14T00:49:31.384Z,90.74
2018-06-14T00:54:26.559Z,91.06
2018-06-14T00:59:21.222Z,91.25
2018-06-14T01:04:17.934Z,91.31
2018-06-14T01:09:12.607Z,91.43
2018-06-14T01:14:07.834Z,90.96
2018-06-14T01:19:02.436Z,90.39
2018-06-14T01:23:57.084Z,91.17
2018-06-14T01:28:51.792Z,91.06
2018-06-14T01:33:46.427Z,90.88
2018-06-14T01:38:41.134Z,90.67
2018-06-14T01:43:35.719Z,89.14
2018-06-14T01:48:30.449Z,89.89
2018-06-14T01:53:25.078Z,88.88
2018-06-14T01:58:19.749Z,89.44
2018-06-14T02:03:14.541Z,88.72
2018-06-14T02:08:09.182Z,90.01
2018-06-14T02:13:03.790Z,88.72
2018-06-14T02:17:59.346Z,89.54
2018-06-14T02:22:54.635Z,89.62
2018-06-14T02:27:49.294Z,85.58
2018-06-14T02:32:44.192Z,88.34
2018-06-14T02:37:41.329Z,88.83
2018-06-14T02:42:36.059Z,89.82
2018-06-14T02:47:30.814Z,90.29
2018-06-14T02:52:25.510Z,88.85
2018-06-14T02:57:20.235Z,90.12
2018-06-14T03:02:14.887Z,90.33
2018-06-14T03:07:10.300Z,89.96
2018-06-14T03:12:06.061Z,90.55
2018-06-14T03:17:00.757Z,91.13
2018-06-14T03:21:55.448Z,90.07
2018-06-14T03:26:50.209Z,90.04
2018-06-14T03:31:45.806Z,90.05
2018-06-14T03:36:40.712Z,87.43
2018-06-14T03:41:35.382Z,88.89
2018-06-14T03:46:31.794Z,90.04
2018-06-14T03:51:26.494Z,89.04
2018-06-14T03:56:21.200Z,90.00
2018-06-14T04:01:16.028Z,90.29
2018-06-14T04:06:10.734Z,88.97
2018-06-14T04:11:08.667Z,88.66
2018-06-14T04:16:03.306Z,90.09
2018-06-14T04:20:57.919Z,89.82
2018-06-14T04:31:17.349Z,88.60
2018-06-14T04:36:11.954Z,87.88
2018-06-14T04:41:07.242Z,85.73
2018-06-14T04:46:02.103Z,85.04
2018-06-14T04:50:56.726Z,82.12
2018-06-14T04:55:51.380Z,79.46
2018-06-14T05:00:46.055Z,79.12
2018-06-14T05:05:40.830Z,76.91
2018-06-14T05:10:35.572Z,74.61
2018-06-14T05:15:30.404Z,74.38
2018-06-14T05:20:25.096Z,73.41
2018-06-14T05:25:20.875Z,72.15
2018-06-14T05:30:15.625Z,70.09
2018-06-14T05:35:10.375Z,71.16
2018-06-14T05:40:05.182Z,67.67
2018-06-14T05:44:59.786Z,71.60
2018-06-14T05:49:55.482Z,70.61
2018-06-14T05:54:50.270Z,68.74
2018-06-14T05:59:45.092Z,73.69
2018-06-14T06:04:39.736Z,69.46
2018-06-14T06:09:34.014Z,70.63
2018-06-14T06:14:28.663Z,71.55
2018-06-14T06:19:23.323Z,72.98
2018-06-14T06:24:17.969Z,69.80
2018-06-14T06:29:12.614Z,74.11
2018-06-14T06:34:07.278Z,71.61
2018-06-14T06:39:07.045Z,71.71
2018-06-14T06:44:01.805Z,71.11
2018-06-14T06:48:56.803Z,70.75
2018-06-14T06:53:51.499Z,70.23
2018-06-14T06:58:46.117Z,68.23
2018-06-14T07:03:40.991Z,64.19
2018-06-14T07:08:35.655Z,67.17
2018-06-14T07:13:31.720Z,66.37
2018-06-14T07:18:31.858Z,65.11
2018-06-14T07:34:17.255Z,64.91
2018-06-14T07:39:15.178Z,62.46
2018-06-14T07:49:53.450Z,57.95
2018-06-14T07:54:48.297Z,55.77
2018-06-14T07:59:43.342Z,59.85
2018-06-14T08:04:48.605Z,54.80
2018-06-14T08:14:48.049Z,55.41
2018-06-14T08:19:45.405Z,53.56
2018-06-14T08:25:38.069Z,52.69
2018-06-14T08:30:34.109Z,50.44
2018-06-14T08:35:30.648Z,51.51
2018-06-14T08:40:32.845Z,47.98
2018-06-14T08:45:27.738Z,50.06
2018-06-14T08:50:22.460Z,51.03
2018-06-14T08:55:17.359Z,48.63
2018-06-14T09:00:12.130Z,48.61
2018-06-14T09:05:06.903Z,49.35
2018-06-14T09:10:01.725Z,54.59
2018-06-14T09:14:57.310Z,52.52
2018-06-14T09:19:52.250Z,58.88
2018-06-14T09:24:46.998Z,53.84
2018-06-14T09:29:41.867Z,50.90
2018-06-14T09:34:45.458Z,49.87
2018-06-14T09:39:40.274Z,42.46
2018-06-14T09:44:35.141Z,44.88
2018-06-14T09:49:31.590Z,43.62
2018-06-14T09:54:27.054Z,48.73
2018-06-14T09:59:21.894Z,46.55
2018-06-14T10:04:39.394Z,48.74
2018-06-14T10:09:34.283Z,54.68
2018-06-14T10:14:30.079Z,49.68
2018-06-14T10:19:24.996Z,50.14
2018-06-14T10:24:19.775Z,53.80
2018-06-14T10:29:14.650Z,50.04
2018-06-14T10:34:09.609Z,54.17
2018-06-14T10:39:06.164Z,50.54
2018-06-14T10:44:01.311Z,53.76
2018-06-14T10:48:57.031Z,51.68
2018-06-14T10:53:52.205Z,55.63
2018-06-14T10:58:47.279Z,53.26
2018-06-14T11:03:42.446Z,49.46
2018-06-14T11:08:37.656Z,46.10
2018-06-14T11:13:32.661Z,48.97
2018-06-14T11:18:27.864Z,43.73
2018-06-14T11:23:23.227Z,47.72
2018-06-14T11:28:19.097Z,51.26
2018-06-14T11:33:14.225Z,51.34
2018-06-14T11:38:09.581Z,45.62
2018-06-14T11:43:04.780Z,49.57
2018-06-14T11:47:59.996Z,51.15
2018-06-14T11:53:16.450Z,51.54
2018-06-14T11:58:11.426Z,46.57
2018-06-14T12:03:08.852Z,48.33
2018-06-14T12:08:04.265Z,45.56
2018-06-14T12:13:00.123Z,40.47
2018-06-14T12:17:58.193Z,41.04
2018-06-14T12:22:53.688Z,44.11
2018-06-14T12:27:50.991Z,46.62
2018-06-14T12:33:07.865Z,42.29
2018-06-14T12:38:03.605Z,45.48
2018-06-14T12:48:23.856Z,50.06
2018-06-14T12:53:26.610Z,45.28
2018-06-14T12:58:36.162Z,46.32
2018-06-14T13:03:31.259Z,40.36
2018-06-14T13:08:26.258Z,45.37
2018-06-14T13:13:22.072Z,45.21
2018-06-14T13:18:17.137Z,41.90
2018-06-14T13:23:11.849Z,40.49
2018-06-14T13:28:06.854Z,43.24
2018-06-14T13:33:03.986Z,43.07
2018-06-14T13:37:59.041Z,41.12
2018-06-14T13:42:54.805Z,43.87
2018-06-14T13:47:49.580Z,46.64
2018-06-14T13:52:45.164Z,47.15
2018-06-14T13:58:06.088Z,43.71
2018-06-14T14:03:18.046Z,47.49
2018-06-14T14:08:29.168Z,47.81
2018-06-14T14:13:24.233Z,46.38
2018-06-14T14:18:19.310Z,46.97
2018-06-14T14:23:14.662Z,46.88
2018-06-14T14:28:09.772Z,46.38
2018-06-14T14:33:04.661Z,46.26
2018-06-14T14:37:59.708Z,45.39
2018-06-14T14:42:54.982Z,42.89
2018-06-14T14:47:49.996Z,45.92
2018-06-14T14:52:45.045Z,43.78
2018-06-14T14:57:40.648Z,47.57
2018-06-14T15:02:35.685Z,47.42
2018-06-14T15:07:47.569Z,47.13
2018-06-14T15:12:42.916Z,46.88
2018-06-14T15:17:37.953Z,50.41
2018-06-14T15:22:33.138Z,47.04
2018-06-14T15:27:30.048Z,46.81
2018-06-14T15:32:25.005Z,47.35
2018-06-14T15:37:24.659Z,51.13
2018-06-14T15:42:30.539Z,48.91
2018-06-14T15:47:26.456Z,48.13
2018-06-14T15:52:21.403Z,48.51
2018-06-14T15:57:16.256Z,49.64
2018-06-14T16:02:12.274Z,47.28
2018-06-14T16:07:07.462Z,46.11
2018-06-14T16:12:01.968Z,45.14
2018-06-14T16:16:56.862Z,44.35
2018-06-14T16:21:51.695Z,46.29
2018-06-14T16:26:46.627Z,46.85
2018-06-14T16:31:41.520Z,45.70
2018-06-14T16:36:36.310Z,45.35
2018-06-14T16:41:31.324Z,47.54
2018-06-14T16:46:26.292Z,50.16
2018-06-14T16:51:21.194Z,46.43
2018-06-14T16:56:16.028Z,48.69
2018-06-14T17:01:10.800Z,46.13
2018-06-14T17:06:05.683Z,47.28
2018-06-14T17:11:00.528Z,45.47
2018-06-14T17:15:55.404Z,50.71
2018-06-14T17:20:52.677Z,46.66
2018-06-14T17:25:49.955Z,46.74
2018-06-14T17:30:45.692Z,46.60
2018-06-14T17:35:42.248Z,48.76
2018-06-14T17:40:37.792Z,49.93
2018-06-14T17:45:32.734Z,51.51
2018-06-14T17:50:27.587Z,48.29
2018-06-14T17:55:23.772Z,49.06
2018-06-14T18:00:19.090Z,51.10
2018-06-14T18:05:14.052Z,51.85
2018-06-14T18:10:09.013Z,51.37
2018-06-14T18:15:04.105Z,52.75
2018-06-14T18:19:58.958Z,53.89
2018-06-14T18:24:57.504Z,55.64
2018-06-14T18:29:52.552Z,56.00
2018-06-14T18:34:47.757Z,55.86
2018-06-14T18:39:42.895Z,56.72
2018-06-14T18:48:10.758Z,60.14
2018-06-14T18:53:07.349Z,60.61
2018-06-14T18:58:02.349Z,61.99
2018-06-14T19:02:57.388Z,62.20
2018-06-14T19:07:52.597Z,62.00
2018-06-14T19:12:51.225Z,62.78
2018-06-14T19:20:19.333Z,63.41
2018-06-14T19:37:22.345Z,64.98
2018-06-14T19:42:26.906Z,66.57
2018-06-14T19:47:44.995Z,65.76
2018-06-14T19:57:31.502Z,63.94
2018-06-14T20:02:29.057Z,65.63
2018-06-14T20:17:54.528Z,65.80
2018-06-14T20:22:49.462Z,66.65
2018-06-14T20:27:44.248Z,67.91
2018-06-14T20:32:38.983Z,66.62
2018-06-14T20:37:35.314Z,66.04
2018-06-14T20:42:30.141Z,65.27
2018-06-14T20:47:24.808Z,68.21
2018-06-14T20:52:20.230Z,68.95
2018-06-14T20:57:15.628Z,68.54
2018-06-14T21:02:10.340Z,68.22
2018-06-14T21:07:05.212Z,66.80
2018-06-14T21:12:00.086Z,69.08
2018-06-14T21:16:54.835Z,69.20
2018-06-14T21:21:49.550Z,68.34
2018-06-14T21:26:44.443Z,68.68
2018-06-14T21:31:39.184Z,68.98
2018-06-14T21:36:34.915Z,70.38
2018-06-14T21:41:34.540Z,68.78
2018-06-14T21:46:29.655Z,71.10
2018-06-14T21:51:48.420Z,71.28
2018-06-14T21:56:45.160Z,69.92
2018-06-14T22:01:40.019Z,71.46
2018-06-14T22:06:34.701Z,71.13
2018-06-14T22:11:29.557Z,71.71
2018-06-14T22:16:24.577Z,71.74
2018-06-14T22:21:19.503Z,72.23
2018-06-14T22:26:14.310Z,70.17
2018-06-14T22:31:09.014Z,72.02
2018-06-14T22:36:07.997Z,73.14
2018-06-14T22:41:03.111Z,71.79
2018-06-14T22:45:57.834Z,71.50
2018-06-14T22:51:09.154Z,72.62
2018-06-14T22:56:03.645Z,71.10
2018-06-14T23:01:38.115Z,73.32
2018-06-14T23:06:33.166Z,72.61
2018-06-14T23:11:28.007Z,73.54
2018-06-14T23:16:22.832Z,74.41
2018-06-14T23:21:17.704Z,74.70
2018-06-14T23:26:12.590Z,75.26
2018-06-14T23:31:08.309Z,74.92
2018-06-14T23:36:03.040Z,74.34
2018-06-14T23:40:57.781Z,74.48
2018-06-14T23:45:53.544Z,75.62
2018-06-14T23:50:48.324Z,75.54
2018-06-14T23:55:43.269Z,76.00
